createdAt,value
2022-11-16T00:01:46.623Z,32.90
2022-11-16T00:06:49.861Z,35.20
2022-11-16T00:12:04.196Z,34.60
2022-11-16T00:17:06.320Z,35.80
2022-11-16T00:22:08.241Z,41.30
2022-11-16T00:27:10.147Z,41.30
2022-11-16T00:32:12.590Z,40.00
2022-11-16T00:37:14.443Z,41.40
2022-11-16T00:42:16.316Z,41.00
2022-11-16T00:47:18.427Z,40.00
2022-11-16T00:52:20.284Z,38.50
2022-11-16T00:57:22.262Z,40.90
2022-11-16T01:02:25.813Z,38.50
2022-11-16T01:07:27.748Z,36.50
2022-11-16T01:12:29.686Z,34.90
2022-11-16T01:17:31.594Z,30.70
2022-11-16T01:22:37.917Z,29.20
2022-11-16T01:27:40.829Z,30.50
2022-11-16T01:32:47.446Z,30.30
2022-11-16T01:37:50.220Z,33.60
2022-11-16T01:42:53.068Z,35.00
2022-11-16T01:47:55.531Z,35.40
2022-11-16T01:53:05.941Z,34.20
2022-11-16T01:58:19.913Z,36.70
2022-11-16T02:03:27.285Z,32.60
2022-11-16T02:08:57.626Z,29.80
2022-11-16T02:14:20.420Z,28.80
2022-11-16T02:20:00.485Z,28.40
2022-11-16T02:25:05.758Z,28.10
2022-11-16T02:30:08.623Z,31.00
2022-11-16T02:35:37.067Z,31.60
2022-11-16T02:40:46.690Z,30.80
2022-11-16T02:45:55.477Z,28.90
2022-11-16T02:50:57.959Z,26.20
2022-11-16T02:55:59.969Z,25.50
2022-11-16T03:01:18.272Z,25.10
2022-11-16T03:06:29.864Z,22.00
2022-11-16T03:11:55.002Z,21.30
2022-11-16T03:16:57.957Z,21.50
2022-11-16T03:22:04.747Z,22.10
2022-11-16T03:27:22.215Z,21.50
2022-11-16T03:32:36.827Z,20.40
2022-11-16T03:37:43.253Z,21.10
2022-11-16T03:42:49.681Z,20.60
2022-11-16T03:47:52.445Z,19.80
2022-11-16T03:52:55.837Z,20.00
2022-11-16T03:57:58.317Z,21.10
2022-11-16T04:03:00.254Z,19.00
2022-11-16T04:08:20.988Z,21.70
2022-11-16T04:13:47.671Z,17.60
2022-11-16T04:19:08.349Z,19.00
2022-11-16T04:24:20.856Z,17.70
2022-11-16T04:29:23.134Z,15.40
2022-11-16T04:34:43.882Z,16.50
2022-11-16T04:39:45.765Z,15.70
2022-11-16T04:45:06.711Z,13.30
2022-11-16T04:50:13.725Z,11.60
2022-11-16T04:55:16.038Z,13.10
2022-11-16T05:00:19.474Z,13.30
2022-11-16T05:05:21.773Z,13.20
2022-11-16T05:10:24.521Z,13.20
2022-11-16T05:15:27.416Z,13.10
2022-11-16T05:20:48.450Z,11.40
2022-11-16T05:25:50.360Z,12.10
2022-11-16T05:30:52.557Z,12.00
2022-11-16T05:35:57.430Z,13.00
2022-11-16T05:40:59.607Z,13.40
2022-11-16T05:46:02.188Z,12.50
2022-11-16T05:51:04.106Z,14.00
2022-11-16T05:56:08.777Z,14.30
2022-11-16T06:01:13.181Z,11.60
2022-11-16T06:06:15.410Z,12.80
2022-11-16T06:11:17.963Z,13.50
2022-11-16T06:16:20.623Z,12.90
2022-11-16T06:21:22.923Z,12.50
2022-11-16T06:26:24.935Z,11.50
2022-11-16T06:31:26.909Z,13.30
2022-11-16T06:36:29.959Z,14.10
2022-11-16T06:41:32.941Z,13.70
2022-11-16T06:46:35.249Z,12.50
2022-11-16T06:51:37.814Z,15.00
2022-11-16T06:56:39.933Z,14.90
2022-11-16T07:01:43.145Z,15.00
2022-11-16T07:06:47.698Z,14.50
2022-11-16T07:11:50.266Z,17.20
2022-11-16T07:16:59.324Z,19.90
2022-11-16T07:22:04.386Z,20.60
2022-11-16T07:27:08.569Z,20.70
2022-11-16T07:32:11.789Z,18.50
2022-11-16T07:37:52.686Z,19.20
2022-11-16T07:42:57.796Z,21.30
2022-11-16T07:48:06.298Z,23.40
2022-11-16T07:53:26.778Z,21.30
2022-11-16T07:58:30.016Z,19.00
2022-11-16T08:03:34.142Z,19.70
2022-11-16T08:08:38.876Z,22.10
2022-11-16T08:13:42.539Z,19.90
2022-11-16T08:18:45.328Z,21.80
2022-11-16T08:23:48.260Z,21.00
2022-11-16T08:28:51.453Z,21.70
2022-11-16T08:33:54.377Z,19.70
2022-11-16T08:38:56.545Z,25.20
2022-11-16T08:44:00.310Z,24.90
2022-11-16T08:49:02.462Z,27.20
2022-11-16T08:54:06.382Z,29.20
2022-11-16T08:59:10.434Z,28.80
2022-11-16T09:04:15.337Z,29.00
2022-11-16T09:09:17.180Z,28.10
2022-11-16T09:14:19.052Z,26.40
2022-11-16T09:19:21.056Z,29.70
2022-11-16T09:24:22.900Z,26.50
2022-11-16T09:29:27.722Z,27.20
2022-11-16T09:34:29.686Z,24.90
2022-11-16T09:39:32.684Z,25.00
2022-11-16T09:45:05.221Z,29.30
2022-11-16T09:50:19.185Z,31.00
2022-11-16T09:55:25.998Z,32.90
2022-11-16T10:00:30.837Z,27.40
2022-11-16T10:06:06.500Z,30.70
2022-11-16T10:11:17.500Z,31.10
2022-11-16T10:16:48.855Z,29.10
2022-11-16T10:22:09.452Z,33.20
2022-11-16T10:27:27.710Z,33.10
2022-11-16T10:32:33.635Z,32.50
2022-11-16T10:37:39.405Z,33.10
2022-11-16T10:42:41.287Z,29.00
2022-11-16T10:48:16.726Z,31.20
2022-11-16T10:53:36.868Z,34.20
2022-11-16T10:59:06.322Z,37.70
2022-11-16T11:04:24.526Z,34.90
2022-11-16T11:09:27.845Z,42.80
2022-11-16T11:14:32.691Z,40.80
2022-11-16T11:19:34.539Z,38.40
2022-11-16T11:24:45.184Z,42.20
2022-11-16T11:29:52.958Z,33.00
2022-11-16T11:34:56.331Z,32.90
2022-11-16T11:40:27.791Z,30.30
2022-11-16T11:45:39.655Z,24.80
2022-11-16T11:50:50.357Z,24.10
2022-11-16T11:55:57.835Z,23.50
2022-11-16T12:01:35.601Z,20.50
2022-11-16T12:07:02.346Z,20.20
2022-11-16T12:12:22.467Z,19.40
2022-11-16T12:17:39.153Z,16.40
2022-11-16T12:23:08.253Z,15.10
2022-11-16T12:28:42.174Z,12.10
2022-11-16T12:33:58.593Z,11.20
2022-11-16T12:39:26.801Z,9.90
2022-11-16T12:44:37.785Z,7.60
2022-11-16T12:50:17.422Z,7.00
2022-11-16T12:55:42.605Z,6.50
2022-11-16T13:00:50.173Z,6.40
2022-11-16T13:06:06.680Z,6.30
2022-11-16T13:11:14.928Z,5.80
2022-11-16T13:16:18.168Z,6.20
2022-11-16T13:21:42.004Z,6.60
2022-11-16T13:27:06.114Z,8.00
2022-11-16T13:32:24.421Z,8.00
2022-11-16T13:37:38.293Z,8.20
2022-11-16T13:42:58.304Z,9.10
2022-11-16T13:48:03.480Z,9.90
2022-11-16T13:58:44.004Z,8.00
2022-11-16T14:03:52.050Z,7.70
2022-11-16T14:08:55.543Z,8.40
2022-11-16T14:14:00.959Z,9.50
2022-11-16T14:19:05.279Z,8.60
2022-11-16T14:24:25.742Z,8.30
2022-11-16T14:29:56.215Z,9.40
2022-11-16T14:35:00.586Z,8.10
2022-11-16T14:40:16.983Z,10.50
2022-11-16T14:45:29.524Z,9.60
2022-11-16T14:50:39.619Z,12.10
2022-11-16T14:55:46.315Z,15.10
2022-11-16T15:00:58.665Z,12.50
2022-11-16T15:06:02.524Z,11.00
2022-11-16T15:11:08.341Z,10.10
2022-11-16T15:16:14.774Z,9.40
2022-11-16T15:21:23.925Z,9.70
2022-11-16T15:26:25.791Z,10.20
2022-11-16T15:31:28.852Z,10.20
2022-11-16T15:36:41.388Z,8.50
2022-11-16T15:41:44.067Z,9.30
2022-11-16T15:46:49.189Z,10.20
2022-11-16T15:51:51.373Z,11.20
2022-11-16T15:56:56.823Z,11.40
2022-11-16T16:01:59.049Z,10.60
2022-11-16T16:07:01.299Z,11.10
2022-11-16T16:12:23.330Z,10.50
2022-11-16T16:17:30.170Z,11.50
2022-11-16T16:22:36.564Z,11.70
2022-11-16T16:27:40.787Z,11.70
2022-11-16T16:32:42.719Z,10.60
2022-11-16T16:37:44.784Z,11.20
2022-11-16T16:42:49.650Z,11.40
2022-11-16T16:47:51.607Z,12.20
2022-11-16T16:52:53.498Z,10.90
2022-11-16T16:57:57.745Z,13.30
2022-11-16T17:02:59.580Z,11.70
2022-11-16T17:08:01.762Z,12.00
2022-11-16T17:13:03.971Z,13.00
2022-11-16T17:18:05.856Z,16.40
2022-11-16T17:23:07.679Z,14.60
2022-11-16T17:28:09.531Z,17.70
2022-11-16T17:33:11.417Z,14.30
2022-11-16T17:38:13.365Z,12.10
2022-11-16T17:43:15.150Z,15.10
2022-11-16T17:48:17.023Z,19.20
2022-11-16T17:53:18.837Z,15.80
2022-11-16T17:58:21.298Z,13.10
2022-11-16T18:03:28.376Z,14.40
2022-11-16T18:08:32.065Z,14.80
2022-11-16T18:13:34.713Z,12.70
2022-11-16T18:18:38.500Z,12.40
2022-11-16T18:23:40.721Z,14.50
2022-11-16T18:28:45.305Z,14.50
2022-11-16T18:33:49.416Z,15.10
2022-11-16T18:38:51.397Z,13.10
2022-11-16T18:43:55.502Z,14.20
2022-11-16T18:48:58.124Z,10.70
2022-11-16T18:54:00.016Z,10.40
2022-11-16T18:59:02.985Z,9.90
2022-11-16T19:04:05.083Z,10.90
2022-11-16T19:09:09.838Z,8.90
2022-11-16T19:14:11.711Z,10.40
2022-11-16T19:19:14.077Z,7.40
2022-11-16T19:24:15.957Z,7.20
2022-11-16T19:29:17.773Z,7.80
2022-11-16T19:34:19.681Z,7.60
2022-11-16T19:39:21.479Z,6.00
2022-11-16T19:44:23.462Z,7.80
2022-11-16T19:49:26.232Z,7.50
2022-11-16T19:54:28.178Z,6.50
2022-11-16T19:59:30.013Z,6.30
2022-11-16T20:04:35.649Z,3.80
2022-11-16T20:09:37.594Z,5.40
2022-11-16T20:14:39.531Z,5.50
2022-11-16T20:19:41.954Z,7.70
2022-11-16T20:24:43.828Z,6.70
2022-11-16T20:29:45.936Z,6.90
2022-11-16T20:34:47.766Z,7.10
2022-11-16T20:39:52.727Z,7.30
2022-11-16T20:44:54.645Z,6.40
2022-11-16T20:49:58.598Z,6.50
2022-11-16T20:55:00.594Z,6.30
2022-11-16T21:00:02.490Z,8.10
2022-11-16T21:05:04.591Z,6.30
2022-11-16T21:10:19.426Z,6.40
2022-11-16T21:15:21.367Z,8.40
2022-11-16T21:20:27.951Z,9.20
2022-11-16T21:25:30.536Z,7.80
2022-11-16T21:30:32.410Z,9.90
2022-11-16T21:35:34.383Z,10.10
2022-11-16T21:40:36.288Z,10.70
2022-11-16T21:45:38.123Z,9.70
2022-11-16T21:50:41.311Z,9.50
2022-11-16T21:55:49.724Z,10.60
2022-11-16T22:00:56.485Z,10.10
2022-11-16T22:06:19.104Z,8.70
2022-11-16T22:11:22.449Z,11.40
2022-11-16T22:16:26.992Z,9.50
2022-11-16T22:21:28.903Z,7.50
2022-11-16T22:26:30.752Z,9.00
2022-11-16T22:31:33.646Z,9.60
2022-11-16T22:36:35.540Z,8.60
2022-11-16T22:41:37.421Z,10.00
2022-11-16T22:46:39.304Z,10.20
2022-11-16T22:51:41.268Z,8.00
2022-11-16T22:56:43.824Z,8.20
2022-11-16T23:01:45.913Z,8.30
2022-11-16T23:06:47.931Z,7.40
2022-11-16T23:12:08.744Z,8.60
2022-11-16T23:17:10.673Z,7.50
2022-11-16T23:22:36.980Z,7.60
2022-11-16T23:27:55.615Z,6.40
2022-11-16T23:32:57.522Z,6.70
2022-11-16T23:38:01.638Z,8.00
2022-11-16T23:43:23.368Z,7.60
2022-11-16T23:48:25.226Z,6.50
2022-11-16T23:53:27.232Z,8.50
2022-11-16T23:58:29.104Z,7.00
